createdAt,value
2023-11-15T00:01:50.902Z,82.66
2023-11-15T00:04:54.268Z,82.22
2023-11-15T00:07:57.098Z,82.59
2023-11-15T00:11:00.140Z,83.11
2023-11-15T00:14:04.818Z,82.70
2023-11-15T00:17:08.354Z,82.87
2023-11-15T00:20:14.612Z,82.81
2023-11-15T00:23:17.814Z,82.82
2023-11-15T00:26:21.067Z,83.21
2023-11-15T00:29:26.180Z,83.75
2023-11-15T00:32:30.125Z,84.19
2023-11-15T00:35:34.737Z,84.21
2023-11-15T00:38:37.734Z,84.13
2023-11-15T00:41:41.903Z,83.94
2023-11-15T00:44:44.829Z,83.56
2023-11-15T00:47:48.486Z,84.20
2023-11-15T00:50:51.616Z,84.84
2023-11-15T00:53:54.531Z,85.33
2023-11-15T00:56:57.453Z,83.31
2023-11-15T01:00:00.809Z,81.64
2023-11-15T01:03:04.165Z,81.48
2023-11-15T01:06:07.889Z,81.79
2023-11-15T01:09:11.525Z,82.34
2023-11-15T01:12:14.659Z,83.18
2023-11-15T01:15:17.831Z,83.69
2023-11-15T01:18:23.942Z,84.72
2023-11-15T01:21:26.856Z,83.05
2023-11-15T01:24:29.750Z,84.48
2023-11-15T01:27:33.274Z,85.66
2023-11-15T01:30:36.238Z,86.55
2023-11-15T01:33:42.909Z,87.03
2023-11-15T01:36:47.509Z,87.12
2023-11-15T01:39:52.010Z,86.72
2023-11-15T01:42:55.111Z,86.54
2023-11-15T01:45:58.411Z,86.48
2023-11-15T01:49:01.376Z,82.94
2023-11-15T01:52:07.744Z,81.32
2023-11-15T01:55:14.006Z,80.89
2023-11-15T01:58:17.510Z,81.86
2023-11-15T02:01:22.000Z,81.36
2023-11-15T02:04:25.188Z,82.65
2023-11-15T02:07:27.876Z,81.82
2023-11-15T02:10:31.836Z,81.66
2023-11-15T02:13:34.738Z,83.52
2023-11-15T02:16:39.431Z,82.67
2023-11-15T02:19:42.146Z,84.02
2023-11-15T02:22:48.267Z,83.55
2023-11-15T02:25:52.333Z,84.27
2023-11-15T02:28:56.017Z,84.30
2023-11-15T02:31:58.607Z,84.00
2023-11-15T02:35:01.783Z,83.95
2023-11-15T02:38:06.703Z,84.98
2023-11-15T02:41:10.605Z,85.67
2023-11-15T02:44:13.127Z,86.54
2023-11-15T02:47:16.288Z,87.50
2023-11-15T02:50:19.099Z,88.32
2023-11-15T02:53:22.419Z,89.59
2023-11-15T02:56:25.642Z,89.87
2023-11-15T02:59:28.871Z,89.34
2023-11-15T03:02:31.538Z,89.02
2023-11-15T03:05:34.794Z,89.02
2023-11-15T03:08:37.857Z,89.60
2023-11-15T03:11:41.296Z,90.02
2023-11-15T03:14:44.004Z,89.41
2023-11-15T03:17:47.178Z,87.43
2023-11-15T03:20:50.819Z,88.95
2023-11-15T03:23:54.118Z,87.89
2023-11-15T03:26:57.005Z,89.13
2023-11-15T03:30:01.115Z,89.55
2023-11-15T03:33:04.021Z,87.12
2023-11-15T03:36:07.458Z,88.25
2023-11-15T03:39:10.619Z,89.03
2023-11-15T03:42:13.806Z,89.03
2023-11-15T03:45:16.440Z,90.00
2023-11-15T03:48:19.692Z,90.54
2023-11-15T03:51:23.240Z,90.01
2023-11-15T03:54:26.321Z,91.21
2023-11-15T03:57:28.947Z,91.13
2023-11-15T04:00:32.605Z,90.41
2023-11-15T04:03:35.888Z,90.75
2023-11-15T04:06:39.325Z,89.33
2023-11-15T04:09:43.000Z,89.86
2023-11-15T04:12:47.993Z,89.78
2023-11-15T04:15:52.351Z,90.08
2023-11-15T04:18:55.345Z,90.26
2023-11-15T04:22:08.780Z,89.86
2023-11-15T04:25:16.706Z,89.99
2023-11-15T04:28:20.985Z,90.04
2023-11-15T04:31:25.346Z,89.45
2023-11-15T04:34:28.273Z,90.34
2023-11-15T04:37:31.092Z,90.79
2023-11-15T04:40:33.969Z,89.78
2023-11-15T04:43:36.807Z,90.00
2023-11-15T04:46:39.776Z,90.47
2023-11-15T04:49:42.820Z,90.57
2023-11-15T04:52:45.699Z,90.79
2023-11-15T04:55:48.595Z,90.18
2023-11-15T04:58:53.598Z,89.96
2023-11-15T05:01:56.839Z,88.99
2023-11-15T05:05:00.305Z,88.86
2023-11-15T05:08:04.616Z,88.72
2023-11-15T05:11:07.516Z,88.49
2023-11-15T05:14:10.424Z,88.30
2023-11-15T05:17:13.627Z,88.73
2023-11-15T05:20:16.462Z,89.54
2023-11-15T05:23:19.353Z,89.35
2023-11-15T05:26:22.316Z,89.41
2023-11-15T05:29:25.691Z,90.49
2023-11-15T05:32:28.523Z,90.88
2023-11-15T05:35:31.496Z,91.29
2023-11-15T05:38:34.646Z,91.45
2023-11-15T05:41:37.662Z,91.72
2023-11-15T05:44:40.937Z,92.27
2023-11-15T05:47:44.362Z,92.48
2023-11-15T05:50:47.405Z,93.04
2023-11-15T05:53:50.277Z,93.81
2023-11-15T05:56:53.297Z,93.43
2023-11-15T05:59:56.272Z,93.51
2023-11-15T06:02:59.313Z,92.16
2023-11-15T06:06:03.219Z,92.43
2023-11-15T06:09:06.256Z,93.04
2023-11-15T06:12:09.315Z,93.63
2023-11-15T06:15:12.763Z,94.08
2023-11-15T06:18:17.449Z,93.84
2023-11-15T06:21:21.956Z,95.00
2023-11-15T06:24:25.314Z,95.20
2023-11-15T06:27:28.980Z,92.80
2023-11-15T06:30:32.288Z,92.95
2023-11-15T06:33:35.450Z,92.35
2023-11-15T06:36:42.821Z,92.16
2023-11-15T06:39:49.578Z,93.06
2023-11-15T06:42:52.613Z,93.24
2023-11-15T06:45:57.045Z,93.39
2023-11-15T06:49:00.026Z,93.67
2023-11-15T06:52:03.354Z,92.26
2023-11-15T06:55:11.296Z,93.02
2023-11-15T06:58:20.852Z,92.38
2023-11-15T07:01:24.136Z,92.06
2023-11-15T07:04:28.041Z,91.72
2023-11-15T07:07:31.470Z,90.85
2023-11-15T07:10:34.337Z,89.10
2023-11-15T07:13:37.182Z,85.76
2023-11-15T07:16:48.681Z,79.70
2023-11-15T07:19:51.758Z,80.88
2023-11-15T07:22:54.680Z,82.30
2023-11-15T07:25:57.747Z,81.47
2023-11-15T07:29:01.717Z,80.13
2023-11-15T07:32:05.757Z,79.66
2023-11-15T07:35:11.890Z,78.71
2023-11-15T07:38:15.482Z,74.19
2023-11-15T07:41:19.721Z,73.65
2023-11-15T07:44:22.680Z,70.88
2023-11-15T07:47:26.659Z,69.96
2023-11-15T07:50:29.941Z,70.61
2023-11-15T07:53:33.666Z,70.94
2023-11-15T07:56:38.962Z,69.36
2023-11-15T07:59:42.768Z,70.55
2023-11-15T08:02:45.913Z,68.43
2023-11-15T08:05:49.322Z,67.87
2023-11-15T08:08:52.157Z,67.51
2023-11-15T08:11:57.263Z,66.66
2023-11-15T08:15:01.194Z,67.12
2023-11-15T08:18:04.820Z,66.62
2023-11-15T08:21:14.306Z,66.67
2023-11-15T08:24:23.856Z,67.50
2023-11-15T08:27:26.682Z,66.00
2023-11-15T08:30:30.950Z,66.15
2023-11-15T08:33:35.342Z,66.43
2023-11-15T08:36:39.540Z,65.05
2023-11-15T08:39:43.628Z,65.81
2023-11-15T08:42:47.597Z,64.61
2023-11-15T08:45:50.332Z,64.13
2023-11-15T08:48:53.724Z,64.68
2023-11-15T08:51:57.764Z,63.21
2023-11-15T08:55:01.008Z,62.98
2023-11-15T08:58:03.794Z,62.51
2023-11-15T09:01:10.434Z,62.41
2023-11-15T09:04:17.731Z,62.51
2023-11-15T09:07:21.544Z,63.96
2023-11-15T09:10:24.487Z,63.18
2023-11-15T09:13:29.542Z,64.09
2023-11-15T09:16:32.286Z,63.03
2023-11-15T09:19:35.539Z,63.28
2023-11-15T09:22:39.217Z,61.91
2023-11-15T09:25:44.752Z,61.43
2023-11-15T09:28:48.335Z,60.94
2023-11-15T09:31:53.350Z,60.73
2023-11-15T09:34:58.013Z,60.69
2023-11-15T09:38:01.306Z,60.48
2023-11-15T09:41:07.908Z,61.75
2023-11-15T09:44:18.359Z,60.69
2023-11-15T09:47:21.651Z,60.16
2023-11-15T09:50:28.035Z,60.73
2023-11-15T09:53:34.693Z,60.36
2023-11-15T09:56:38.256Z,61.16
2023-11-15T09:59:48.094Z,60.92
2023-11-15T10:02:55.858Z,60.65
2023-11-15T10:06:00.991Z,60.22
2023-11-15T10:09:04.378Z,60.76
2023-11-15T10:12:07.924Z,61.39
2023-11-15T10:15:12.475Z,60.98
2023-11-15T10:18:29.244Z,60.52
2023-11-15T10:21:34.921Z,59.75
2023-11-15T10:24:39.195Z,60.73
2023-11-15T10:27:42.619Z,60.68
2023-11-15T10:30:45.628Z,60.21
2023-11-15T10:33:54.845Z,60.11
2023-11-15T10:37:09.004Z,59.18
2023-11-15T10:40:12.987Z,59.47
2023-11-15T10:43:20.281Z,59.11
2023-11-15T10:46:30.789Z,59.25
2023-11-15T10:49:41.186Z,58.41
2023-11-15T10:52:44.655Z,58.53
2023-11-15T10:55:49.090Z,58.44
2023-11-15T10:58:54.070Z,59.00
2023-11-15T11:02:01.882Z,58.32
2023-11-15T11:05:11.754Z,57.03
2023-11-15T11:08:56.068Z,56.00
2023-11-15T11:12:07.081Z,55.85
2023-11-15T11:15:25.887Z,56.41
2023-11-15T11:18:32.092Z,55.72
2023-11-15T11:22:04.643Z,55.79
2023-11-15T11:25:12.037Z,54.55
2023-11-15T11:28:21.954Z,54.97
2023-11-15T11:31:27.674Z,54.56
2023-11-15T11:34:30.657Z,54.77
2023-11-15T11:37:57.325Z,54.89
2023-11-15T11:41:03.938Z,54.50
2023-11-15T11:44:08.043Z,54.01
2023-11-15T11:47:12.782Z,53.61
2023-11-15T11:50:25.235Z,54.12
2023-11-15T11:53:28.518Z,53.20
2023-11-15T11:56:31.970Z,53.58
2023-11-15T11:59:34.942Z,53.13
2023-11-15T12:02:38.777Z,53.65
2023-11-15T12:05:46.483Z,53.82
2023-11-15T12:08:52.734Z,54.22
2023-11-15T12:11:58.675Z,54.12
2023-11-15T12:15:01.884Z,53.59
2023-11-15T12:18:05.132Z,53.02
2023-11-15T12:21:08.406Z,53.75
2023-11-15T12:24:12.737Z,54.23
2023-11-15T12:27:16.052Z,53.59
2023-11-15T12:30:19.235Z,54.21
2023-11-15T12:33:22.627Z,53.83
2023-11-15T12:36:25.709Z,54.04
2023-11-15T12:39:39.153Z,52.86
2023-11-15T12:42:44.280Z,52.14
2023-11-15T12:45:47.857Z,52.66
2023-11-15T12:48:50.716Z,53.17
2023-11-15T12:51:53.778Z,53.15
2023-11-15T12:54:57.364Z,53.42
2023-11-15T12:58:00.292Z,53.66
2023-11-15T13:01:12.778Z,53.61
2023-11-15T13:04:16.732Z,54.07
2023-11-15T13:07:20.560Z,54.18
2023-11-15T13:10:23.625Z,54.12
2023-11-15T13:13:26.566Z,54.24
2023-11-15T13:16:29.465Z,53.82
2023-11-15T13:19:33.660Z,53.75
2023-11-15T13:22:36.562Z,53.14
2023-11-15T13:25:39.576Z,53.68
2023-11-15T13:28:45.261Z,53.33
2023-11-15T13:31:48.380Z,53.33
2023-11-15T13:34:52.263Z,53.94
2023-11-15T13:37:57.276Z,53.97
2023-11-15T13:41:01.201Z,53.55
2023-11-15T13:44:04.541Z,54.10
2023-11-15T13:47:08.311Z,53.81
2023-11-15T13:50:12.284Z,53.90
2023-11-15T13:53:15.193Z,53.60
2023-11-15T13:56:22.060Z,53.54
2023-11-15T13:59:25.150Z,53.53
2023-11-15T14:02:28.295Z,52.63
2023-11-15T14:05:31.627Z,53.23
2023-11-15T14:11:51.270Z,53.60
2023-11-15T14:14:54.261Z,53.70
2023-11-15T14:17:57.899Z,54.18
2023-11-15T14:21:00.642Z,54.12
2023-11-15T14:24:04.098Z,54.53
2023-11-15T14:27:06.947Z,54.25
2023-11-15T14:30:11.826Z,54.95
2023-11-15T14:33:16.448Z,54.90
2023-11-15T14:36:20.751Z,55.77
2023-11-15T14:39:26.741Z,56.06
2023-11-15T14:42:29.948Z,56.13
2023-11-15T14:45:35.928Z,56.69
2023-11-15T14:48:39.180Z,56.53
2023-11-15T14:51:41.911Z,56.76
2023-11-15T14:54:47.152Z,57.31
2023-11-15T14:57:52.593Z,57.08
2023-11-15T15:00:56.384Z,57.22
2023-11-15T15:03:59.129Z,56.46
2023-11-15T15:07:03.115Z,56.86
2023-11-15T15:10:10.219Z,56.80
2023-11-15T15:13:15.193Z,57.18
2023-11-15T15:16:22.247Z,56.97
2023-11-15T15:19:25.678Z,57.38
2023-11-15T15:22:28.504Z,57.48
2023-11-15T15:25:32.145Z,57.58
2023-11-15T15:28:35.057Z,57.70
2023-11-15T15:31:38.830Z,57.50
2023-11-15T15:34:41.894Z,56.98
2023-11-15T15:37:47.367Z,56.50
2023-11-15T15:40:50.241Z,57.03
2023-11-15T15:43:56.451Z,57.66
2023-11-15T15:47:00.104Z,57.73
2023-11-15T15:50:03.356Z,57.77
2023-11-15T15:53:06.103Z,57.17
2023-11-15T15:56:09.350Z,57.37
2023-11-15T15:59:12.090Z,56.74
2023-11-15T16:02:17.697Z,56.93
2023-11-15T16:05:20.757Z,57.83
2023-11-15T16:08:27.576Z,57.59
2023-11-15T16:11:30.513Z,56.76
2023-11-15T16:14:33.777Z,56.53
2023-11-15T16:17:37.033Z,56.25
2023-11-15T16:20:40.093Z,56.15
2023-11-15T16:23:43.026Z,55.97
2023-11-15T16:26:46.133Z,56.14
2023-11-15T16:29:49.322Z,56.38
2023-11-15T16:32:54.190Z,56.89
2023-11-15T16:35:57.281Z,57.17
2023-11-15T16:39:01.435Z,56.16
2023-11-15T16:42:04.866Z,56.32
2023-11-15T16:45:09.513Z,56.21
2023-11-15T16:48:13.070Z,56.30
2023-11-15T16:51:16.195Z,56.44
2023-11-15T16:54:20.155Z,56.71
2023-11-15T16:57:23.085Z,56.17
2023-11-15T17:00:26.234Z,55.98
2023-11-15T17:03:29.279Z,56.33
2023-11-15T17:06:34.243Z,56.24
2023-11-15T17:09:37.531Z,56.41
2023-11-15T17:12:40.773Z,56.16
2023-11-15T17:15:43.814Z,56.33
2023-11-15T17:18:47.092Z,56.07
2023-11-15T17:21:50.227Z,56.05
2023-11-15T17:24:54.108Z,56.19
2023-11-15T17:28:01.256Z,56.20
2023-11-15T17:31:09.273Z,56.17
2023-11-15T17:34:12.868Z,55.38
2023-11-15T17:37:19.440Z,55.08
2023-11-15T17:40:22.525Z,55.90
2023-11-15T17:43:25.452Z,56.31
2023-11-15T17:46:28.516Z,55.97
2023-11-15T17:49:31.504Z,56.52
2023-11-15T17:52:34.756Z,56.83
2023-11-15T17:55:38.835Z,56.82
2023-11-15T17:58:42.444Z,57.25
2023-11-15T18:01:45.540Z,56.54
2023-11-15T18:04:49.011Z,56.82
2023-11-15T18:07:52.282Z,56.34
2023-11-15T18:10:56.936Z,56.29
2023-11-15T18:14:01.284Z,56.71
2023-11-15T18:17:04.952Z,57.20
2023-11-15T18:20:11.888Z,56.90
2023-11-15T18:23:15.345Z,56.72
2023-11-15T18:26:26.136Z,57.21
2023-11-15T18:29:32.980Z,57.22
2023-11-15T18:32:47.537Z,57.17
2023-11-15T18:35:51.899Z,56.82
2023-11-15T18:38:54.631Z,57.21
2023-11-15T18:41:59.425Z,57.58
2023-11-15T18:45:05.382Z,57.24
2023-11-15T18:48:10.765Z,57.88
2023-11-15T18:51:13.763Z,57.80
2023-11-15T18:54:17.588Z,57.93
2023-11-15T18:57:23.225Z,57.85
2023-11-15T19:00:27.457Z,57.83
2023-11-15T19:03:35.001Z,57.05
2023-11-15T19:06:39.215Z,56.98
2023-11-15T19:09:44.645Z,57.27
2023-11-15T19:12:50.184Z,56.77
2023-11-15T19:15:55.151Z,56.67
2023-11-15T19:18:59.051Z,56.56
2023-11-15T19:22:01.805Z,57.38
2023-11-15T19:25:16.252Z,57.36
2023-11-15T19:28:19.015Z,57.26
2023-11-15T19:31:22.828Z,57.14
2023-11-15T19:34:29.341Z,56.96
2023-11-15T19:37:33.588Z,57.17
2023-11-15T19:40:37.191Z,57.39
2023-11-15T19:43:42.797Z,57.61
2023-11-15T19:46:45.766Z,57.61
2023-11-15T19:49:49.649Z,58.18
2023-11-15T19:52:52.505Z,58.65
2023-11-15T19:55:55.693Z,59.03
2023-11-15T19:58:58.671Z,59.27
2023-11-15T20:02:02.495Z,59.54
2023-11-15T20:05:05.868Z,60.17
2023-11-15T20:08:08.662Z,60.38
2023-11-15T20:11:16.402Z,60.70
2023-11-15T20:14:19.351Z,60.57
2023-11-15T20:17:22.312Z,60.39
2023-11-15T20:20:25.428Z,60.54
2023-11-15T20:23:28.670Z,60.61
2023-11-15T20:26:31.579Z,61.19
2023-11-15T20:29:38.811Z,61.59
2023-11-15T20:32:42.037Z,61.77
2023-11-15T20:35:48.265Z,62.07
2023-11-15T20:38:51.306Z,61.98
2023-11-15T20:41:58.451Z,61.77
2023-11-15T20:45:04.776Z,61.71
2023-11-15T20:48:20.570Z,61.62
2023-11-15T20:51:26.664Z,61.41
2023-11-15T20:54:33.930Z,60.71
2023-11-15T20:57:38.006Z,61.25
2023-11-15T21:00:41.020Z,61.08
2023-11-15T21:03:44.130Z,60.60
2023-11-15T21:06:48.049Z,60.59
2023-11-15T21:09:53.921Z,60.81
2023-11-15T21:12:57.160Z,60.33
2023-11-15T21:16:04.387Z,60.39
2023-11-15T21:19:09.935Z,60.09
2023-11-15T21:22:14.439Z,59.91
2023-11-15T21:25:17.799Z,60.18
2023-11-15T21:28:21.192Z,60.34
2023-11-15T21:31:24.180Z,60.38
2023-11-15T21:34:28.507Z,60.33
2023-11-15T21:37:31.728Z,60.35
2023-11-15T21:40:35.002Z,60.71
2023-11-15T21:43:37.774Z,60.73
2023-11-15T21:46:40.578Z,60.76
2023-11-15T21:49:43.775Z,60.82
2023-11-15T21:52:47.866Z,61.03
2023-11-15T21:55:51.088Z,60.80
2023-11-15T21:58:54.288Z,60.73
2023-11-15T22:01:57.140Z,61.09
2023-11-15T22:05:00.348Z,61.50
2023-11-15T22:08:03.631Z,61.41
2023-11-15T22:11:07.104Z,60.91
2023-11-15T22:14:09.688Z,61.38
2023-11-15T22:17:15.794Z,61.07
2023-11-15T22:20:20.241Z,61.46
2023-11-15T22:23:23.537Z,60.74
2023-11-15T22:26:26.233Z,61.02
2023-11-15T22:29:30.760Z,60.93
2023-11-15T22:32:34.387Z,61.23
2023-11-15T22:35:37.848Z,61.14
2023-11-15T22:38:41.033Z,61.12
2023-11-15T22:41:44.230Z,61.01
2023-11-15T22:44:46.787Z,61.31
2023-11-15T22:47:49.868Z,61.88
2023-11-15T22:50:52.481Z,61.99
2023-11-15T22:53:56.932Z,61.96
2023-11-15T22:56:59.520Z,62.07
2023-11-15T23:00:05.962Z,61.46
2023-11-15T23:03:12.268Z,61.35
2023-11-15T23:06:15.734Z,60.95
2023-11-15T23:09:19.468Z,61.54
2023-11-15T23:12:24.168Z,61.71
2023-11-15T23:15:31.541Z,62.14
2023-11-15T23:18:35.082Z,62.11
2023-11-15T23:21:41.380Z,61.21
2023-11-15T23:24:49.705Z,61.96
2023-11-15T23:27:52.649Z,61.88
2023-11-15T23:30:57.034Z,61.67
2023-11-15T23:33:59.601Z,62.03
2023-11-15T23:37:03.569Z,62.55
2023-11-15T23:40:13.279Z,62.86
2023-11-15T23:43:18.065Z,63.16
2023-11-15T23:46:22.039Z,63.35
2023-11-15T23:49:25.331Z,62.86
2023-11-15T23:52:28.422Z,62.74
2023-11-15T23:55:31.663Z,63.14
2023-11-15T23:58:34.730Z,62.63
